Time;durP1;ratioP1;P1;durP2;ratioP2;P2;SDS_P1;SDS_P2;PMS_P1;PMS_P2;Temp;Humidity;BMP_temperature;BMP_pressure;BME280_temperature;BME280_humidity;BME280_pressure;Samples;Min_cycle;Max_cycle;Signal;HPM_P1;HPM_P2
2022/04/29 00:00:09;;;;;;;10.50;6.93;;;;;;;;;;5022038;28;20124;-65
2022/04/29 00:02:36;;;;;;;14.43;6.47;;;;;;;;;;5025040;28;20424;-65
2022/04/29 00:05:02;;;;;;;11.10;6.75;;;;;;;;;;5032914;28;20037;-65
2022/04/29 00:07:29;;;;;;;14.05;6.72;;;;;;;;;;5027785;28;20087;-65
2022/04/29 00:09:55;;;;;;;13.93;6.22;;;;;;;;;;5023064;28;20396;-65
2022/04/29 00:12:21;;;;;;;10.63;6.25;;;;;;;;;;5020988;28;20095;-65
2022/04/29 00:14:47;;;;;;;10.57;6.45;;;;;;;;;;5024899;28;20497;-65
2022/04/29 00:17:14;;;;;;;11.45;6.53;;;;;;;;;;5026453;28;20041;-65
2022/04/29 00:19:40;;;;;;;13.27;6.82;;;;;;;;;;5005792;28;20090;-66
2022/04/29 00:22:07;;;;;;;13.98;6.47;;;;;;;;;;5024769;28;20037;-65
2022/04/29 00:24:33;;;;;;;11.65;6.30;;;;;;;;;;5019150;28;20077;-66
2022/04/29 00:26:59;;;;;;;12.80;6.35;;;;;;;;;;5021924;28;20045;-65
2022/04/29 00:29:25;;;;;;;11.40;7.00;;;;;;;;;;5019961;28;20098;-65
2022/04/29 00:31:51;;;;;;;15.40;6.95;;;;;;;;;;5022881;28;20045;-65
2022/04/29 00:34:18;;;;;;;14.43;7.07;;;;;;;;;;5021058;28;20033;-66
2022/04/29 00:36:45;;;;;;;12.25;7.15;;;;;;;;;;5019257;28;20057;-66
2022/04/29 00:39:11;;;;;;;13.52;6.88;;;;;;;;;;5020951;28;20042;-65
2022/04/29 00:41:37;;;;;;;12.00;7.18;;;;;;;;;;5022905;28;20128;-66
2022/04/29 00:44:04;;;;;;;11.60;6.60;;;;;;;;;;5028860;28;20037;-65
2022/04/29 00:46:37;;;;;;;11.57;6.82;;;;;;;;;;5026091;28;20042;-65
2022/04/29 00:49:04;;;;;;;11.88;6.85;;;;;;;;;;5025090;28;20045;-65
2022/04/29 00:51:30;;;;;;;12.68;7.50;;;;;;;;;;5024517;28;20037;-66
2022/04/29 00:53:57;;;;;;;11.52;6.95;;;;;;;;;;5021159;28;20045;-66
2022/04/29 00:56:24;;;;;;;19.10;7.40;;;;;;;;;;5021120;28;20056;-66
2022/04/29 00:58:54;;;;;;;14.10;7.50;;;;;;;;;;5006741;28;20520;-65
2022/04/29 01:01:21;;;;;;;13.43;8.60;;;;;;;;;;5026768;28;20033;-66
2022/04/29 01:03:49;;;;;;;14.73;8.80;;;;;;;;;;5028835;28;20033;-66
2022/04/29 01:06:15;;;;;;;15.60;8.63;;;;;;;;;;5025829;28;20049;-65
2022/04/29 01:08:41;;;;;;;13.48;8.25;;;;;;;;;;5027622;28;20041;-66
2022/04/29 01:11:07;;;;;;;16.83;8.43;;;;;;;;;;5006561;28;20048;-65
2022/04/29 01:13:34;;;;;;;19.23;7.93;;;;;;;;;;5027943;28;20131;-66
2022/04/29 01:16:00;;;;;;;12.75;8.02;;;;;;;;;;5026036;28;20132;-65
2022/04/29 01:18:27;;;;;;;15.70;8.25;;;;;;;;;;5010077;28;20059;-65
2022/04/29 01:21:04;;;;;;;15.52;7.55;;;;;;;;;;5045119;28;20055;-66
2022/04/29 01:23:32;;;;;;;10.93;8.13;;;;;;;;;;5022028;28;20055;-65
2022/04/29 01:25:58;;;;;;;16.40;7.97;;;;;;;;;;5018938;28;20050;-65
2022/04/29 01:28:24;;;;;;;17.65;8.52;;;;;;;;;;5021759;28;21759;-65
2022/04/29 01:30:51;;;;;;;14.13;8.38;;;;;;;;;;5029391;28;20467;-66
2022/04/29 01:33:21;;;;;;;18.10;8.15;;;;;;;;;;5027563;28;20440;-66
2022/04/29 01:35:47;;;;;;;15.20;9.23;;;;;;;;;;5028789;28;20044;-65
2022/04/29 01:38:13;;;;;;;14.07;8.98;;;;;;;;;;5041751;28;20045;-65
2022/04/29 01:40:39;;;;;;;21.88;12.57;;;;;;;;;;5022844;28;20080;-66
2022/04/29 01:43:05;;;;;;;24.98;12.73;;;;;;;;;;5023200;28;20038;-65
2022/04/29 01:45:32;;;;;;;20.35;11.70;;;;;;;;;;5027471;28;20041;-66
2022/04/29 01:47:58;;;;;;;20.60;12.02;;;;;;;;;;5019968;28;20382;-65
2022/04/29 01:50:26;;;;;;;19.20;11.63;;;;;;;;;;5045262;28;20034;-65
2022/04/29 01:52:52;;;;;;;21.40;10.27;;;;;;;;;;5021011;28;20041;-65
2022/04/29 01:55:18;;;;;;;14.80;9.70;;;;;;;;;;5001744;28;20056;-65
2022/04/29 01:57:45;;;;;;;16.15;8.20;;;;;;;;;;5039867;28;20083;-66
2022/04/29 02:00:11;;;;;;;13.63;9.20;;;;;;;;;;5018276;28;20048;-66
2022/04/29 02:02:37;;;;;;;14.80;8.88;;;;;;;;;;5029650;28;20029;-65
2022/04/29 02:05:04;;;;;;;17.38;8.82;;;;;;;;;;5018492;28;20061;-65
2022/04/29 02:07:30;;;;;;;13.30;8.80;;;;;;;;;;5020240;28;20665;-66
2022/04/29 02:09:56;;;;;;;18.95;9.55;;;;;;;;;;5026832;28;20123;-65
2022/04/29 02:12:22;;;;;;;16.42;9.25;;;;;;;;;;5026735;28;20408;-66
2022/04/29 02:14:48;;;;;;;13.93;9.15;;;;;;;;;;5022480;28;20053;-65
2022/04/29 02:17:15;;;;;;;19.13;9.32;;;;;;;;;;5036721;28;20038;-65
2022/04/29 02:19:41;;;;;;;18.50;9.85;;;;;;;;;;5022362;28;20405;-66
2022/04/29 02:22:08;;;;;;;18.52;10.30;;;;;;;;;;5020836;28;20045;-65
2022/04/29 02:24:34;;;;;;;15.25;9.80;;;;;;;;;;5023916;28;20045;-65
2022/04/29 02:27:02;;;;;;;20.77;12.85;;;;;;;;;;5021776;28;20038;-65
2022/04/29 02:29:28;;;;;;;18.20;10.93;;;;;;;;;;5025631;28;20551;-65
2022/04/29 02:31:55;;;;;;;17.38;9.90;;;;;;;;;;5012270;28;20045;-65
2022/04/29 02:34:21;;;;;;;14.38;8.95;;;;;;;;;;5039133;28;20450;-65
2022/04/29 02:36:47;;;;;;;20.55;10.00;;;;;;;;;;5046874;28;20049;-65
2022/04/29 02:39:14;;;;;;;17.02;9.77;;;;;;;;;;5000415;28;20057;-65
2022/04/29 02:41:40;;;;;;;13.88;8.93;;;;;;;;;;5025115;28;20412;-65
2022/04/29 02:44:06;;;;;;;15.88;9.60;;;;;;;;;;5020955;28;20076;-65
2022/04/29 02:46:33;;;;;;;18.52;10.27;;;;;;;;;;5017615;28;20045;-65
2022/04/29 02:48:59;;;;;;;16.05;10.93;;;;;;;;;;5015265;28;20128;-65
2022/04/29 02:51:25;;;;;;;17.73;10.27;;;;;;;;;;5024941;28;20068;-65
2022/04/29 02:53:51;;;;;;;17.83;10.20;;;;;;;;;;5019826;28;21747;-66
2022/04/29 02:56:18;;;;;;;19.27;10.57;;;;;;;;;;5019899;28;20385;-65
2022/04/29 02:58:44;;;;;;;20.98;10.57;;;;;;;;;;5021968;28;20437;-65
2022/04/29 03:01:10;;;;;;;19.05;10.13;;;;;;;;;;5011282;28;20037;-65
2022/04/29 03:03:36;;;;;;;20.55;10.77;;;;;;;;;;5022022;28;20124;-65
2022/04/29 03:06:02;;;;;;;20.40;10.07;;;;;;;;;;5023953;28;20056;-65
2022/04/29 03:08:28;;;;;;;19.48;11.25;;;;;;;;;;5021687;28;20046;-65
2022/04/29 03:10:55;;;;;;;20.33;10.85;;;;;;;;;;5037971;28;21138;-65
2022/04/29 03:13:21;;;;;;;18.92;11.23;;;;;;;;;;5022715;28;20045;-65
2022/04/29 03:15:47;;;;;;;16.63;11.88;;;;;;;;;;5010017;28;20044;-65
2022/04/29 03:18:20;;;;;;;19.73;11.20;;;;;;;;;;5025762;28;20041;-65
2022/04/29 03:20:47;;;;;;;16.98;11.82;;;;;;;;;;5035955;28;20049;-65
2022/04/29 03:23:14;;;;;;;20.02;11.68;;;;;;;;;;5016258;28;20049;-66
2022/04/29 03:25:40;;;;;;;21.27;11.88;;;;;;;;;;5020637;28;20045;-65
2022/04/29 03:28:06;;;;;;;23.38;12.15;;;;;;;;;;5017603;28;20078;-66
2022/04/29 03:30:33;;;;;;;15.68;10.07;;;;;;;;;;5017922;28;20080;-65
2022/04/29 03:32:59;;;;;;;17.55;9.68;;;;;;;;;;5017708;28;20037;-66
2022/04/29 03:35:26;;;;;;;21.15;10.70;;;;;;;;;;5024589;28;20366;-65
2022/04/29 03:37:53;;;;;;;17.48;11.00;;;;;;;;;;5018072;28;20037;-65
2022/04/29 03:40:21;;;;;;;19.50;10.55;;;;;;;;;;5021918;28;20151;-65
2022/04/29 03:42:54;;;;;;;23.02;11.50;;;;;;;;;;5018122;28;20559;-66
2022/04/29 03:45:22;;;;;;;14.80;10.80;;;;;;;;;;5018568;28;20040;-65
2022/04/29 03:47:48;;;;;;;19.02;12.07;;;;;;;;;;5023446;28;20122;-65
2022/04/29 03:50:14;;;;;;;20.67;11.13;;;;;;;;;;5020916;28;20045;-65
2022/04/29 03:52:47;;;;;;;20.05;11.85;;;;;;;;;;5040066;28;20080;-66
2022/04/29 03:55:14;;;;;;;15.18;10.60;;;;;;;;;;5018310;28;20045;-65
2022/04/29 03:57:40;;;;;;;20.50;11.07;;;;;;;;;;5023402;28;20120;-65
2022/04/29 04:00:07;;;;;;;17.90;10.18;;;;;;;;;;5016884;28;20052;-65
2022/04/29 04:02:33;;;;;;;23.45;12.40;;;;;;;;;;5016542;28;20095;-65
2022/04/29 04:04:59;;;;;;;21.23;13.40;;;;;;;;;;5026230;28;20041;-66
2022/04/29 04:07:25;;;;;;;20.63;11.70;;;;;;;;;;5022373;28;20053;-66
2022/04/29 04:09:51;;;;;;;23.83;12.05;;;;;;;;;;5024968;28;20045;-65
2022/04/29 04:12:17;;;;;;;18.83;12.35;;;;;;;;;;5015749;28;20045;-66
2022/04/29 04:14:43;;;;;;;25.77;13.23;;;;;;;;;;5022360;28;20139;-66
2022/04/29 04:17:09;;;;;;;26.92;12.38;;;;;;;;;;5020951;28;20532;-65
2022/04/29 04:19:36;;;;;;;23.25;11.40;;;;;;;;;;5021582;28;20120;-66
2022/04/29 04:22:03;;;;;;;15.60;10.07;;;;;;;;;;5024858;28;20096;-65
2022/04/29 04:24:29;;;;;;;19.63;10.70;;;;;;;;;;5024797;28;20519;-65
2022/04/29 04:26:55;;;;;;;18.15;10.65;;;;;;;;;;5022379;28;20497;-65
2022/04/29 04:29:21;;;;;;;15.10;9.40;;;;;;;;;;5024726;28;20052;-65
2022/04/29 04:31:48;;;;;;;16.88;9.43;;;;;;;;;;5001737;28;20055;-66
2022/04/29 04:36:59;;;;;;;11.65;9.30;;;;;;;;;;5039597;28;20056;-65
2022/04/29 04:39:25;;;;;;;16.98;9.43;;;;;;;;;;5020318;28;20042;-65
2022/04/29 04:41:52;;;;;;;19.60;10.68;;;;;;;;;;5019594;28;20042;-66
2022/04/29 04:44:18;;;;;;;20.05;10.90;;;;;;;;;;5041792;28;20776;-66
2022/04/29 04:46:44;;;;;;;23.25;12.07;;;;;;;;;;5024724;28;20044;-65
2022/04/29 04:49:11;;;;;;;19.63;10.82;;;;;;;;;;5025231;28;20099;-65
2022/04/29 04:51:37;;;;;;;16.35;10.85;;;;;;;;;;5042883;28;20381;-65
2022/04/29 04:54:04;;;;;;;18.52;10.32;;;;;;;;;;5023415;28;20037;-65
2022/04/29 04:56:30;;;;;;;21.02;10.32;;;;;;;;;;5029385;28;20050;-65
2022/04/29 04:58:56;;;;;;;21.83;10.05;;;;;;;;;;5027011;28;20139;-66
2022/04/29 05:01:22;;;;;;;18.60;9.88;;;;;;;;;;5026069;28;20045;-66
2022/04/29 05:03:48;;;;;;;17.60;10.45;;;;;;;;;;5023701;28;20052;-65
2022/04/29 05:06:15;;;;;;;14.57;9.52;;;;;;;;;;5034676;28;20040;-66
2022/04/29 05:08:41;;;;;;;17.55;8.82;;;;;;;;;;5020386;28;20033;-66
2022/04/29 05:11:07;;;;;;;18.80;10.23;;;;;;;;;;5038683;28;20489;-66
2022/04/29 05:13:33;;;;;;;14.90;9.77;;;;;;;;;;5025873;28;20049;-66
2022/04/29 05:15:59;;;;;;;17.35;9.35;;;;;;;;;;5018936;28;20067;-66
2022/04/29 05:18:25;;;;;;;20.48;9.82;;;;;;;;;;5040103;28;20045;-66
2022/04/29 05:20:51;;;;;;;19.55;9.43;;;;;;;;;;5008848;28;20037;-66
2022/04/29 05:23:17;;;;;;;15.23;9.15;;;;;;;;;;5025388;28;20061;-65
2022/04/29 05:25:43;;;;;;;16.95;9.38;;;;;;;;;;5025027;28;20049;-65
2022/04/29 05:28:09;;;;;;;15.30;7.85;;;;;;;;;;5024783;28;20040;-66
2022/04/29 05:30:35;;;;;;;16.55;8.90;;;;;;;;;;5017959;28;20128;-66
2022/04/29 05:33:01;;;;;;;14.05;8.50;;;;;;;;;;5020593;28;20136;-65
2022/04/29 05:35:28;;;;;;;14.05;8.73;;;;;;;;;;5002839;28;20479;-66
2022/04/29 05:37:55;;;;;;;15.30;8.73;;;;;;;;;;5024226;28;20032;-66
2022/04/29 05:43:07;;;;;;;14.10;8.63;;;;;;;;;;5024307;28;20532;-66
2022/04/29 05:45:34;;;;;;;15.30;8.80;;;;;;;;;;5042121;28;20037;-66
2022/04/29 05:48:00;;;;;;;14.85;9.45;;;;;;;;;;5025195;28;20045;-66
2022/04/29 05:50:26;;;;;;;15.63;8.60;;;;;;;;;;5028295;28;20052;-66
2022/04/29 05:52:52;;;;;;;17.38;9.05;;;;;;;;;;5024574;28;20033;-66
2022/04/29 05:55:18;;;;;;;18.85;8.88;;;;;;;;;;5019391;28;20048;-66
2022/04/29 05:57:44;;;;;;;16.90;9.02;;;;;;;;;;5022636;28;20037;-66
2022/04/29 06:00:10;;;;;;;13.68;9.07;;;;;;;;;;5019880;28;20045;-66
2022/04/29 06:02:38;;;;;;;14.52;9.27;;;;;;;;;;5027615;28;20128;-66
2022/04/29 06:05:05;;;;;;;16.40;9.65;;;;;;;;;;5038067;28;20045;-66
2022/04/29 06:07:31;;;;;;;19.15;9.25;;;;;;;;;;5023624;28;20041;-66
2022/04/29 06:09:57;;;;;;;14.43;8.95;;;;;;;;;;5019183;28;20045;-66
2022/04/29 06:12:23;;;;;;;14.90;8.85;;;;;;;;;;5019973;28;20084;-66
2022/04/29 06:14:49;;;;;;;21.77;10.02;;;;;;;;;;5009847;28;20037;-66
2022/04/29 06:17:15;;;;;;;15.73;9.25;;;;;;;;;;5029050;28;20455;-66
2022/04/29 06:19:41;;;;;;;17.27;9.90;;;;;;;;;;5023040;28;20367;-66
2022/04/29 06:22:07;;;;;;;17.50;9.40;;;;;;;;;;5028356;28;20048;-66
2022/04/29 06:24:34;;;;;;;19.88;9.45;;;;;;;;;;5026076;28;20144;-66
2022/04/29 06:27:01;;;;;;;16.90;9.23;;;;;;;;;;5026823;28;20045;-66
2022/04/29 06:29:27;;;;;;;16.77;9.05;;;;;;;;;;5035142;28;20124;-66
2022/04/29 06:31:53;;;;;;;19.73;8.90;;;;;;;;;;5020655;28;20050;-66
2022/04/29 06:34:20;;;;;;;13.70;8.02;;;;;;;;;;5026817;28;20045;-66
2022/04/29 06:36:46;;;;;;;15.95;8.48;;;;;;;;;;5022804;28;20041;-66
2022/04/29 06:39:12;;;;;;;20.15;8.63;;;;;;;;;;5043282;28;20140;-66
2022/04/29 06:41:38;;;;;;;15.13;8.45;;;;;;;;;;5025425;28;20037;-66
2022/04/29 06:44:04;;;;;;;13.88;8.15;;;;;;;;;;5025758;28;20045;-66
2022/04/29 06:46:30;;;;;;;17.92;8.65;;;;;;;;;;5021155;28;20045;-66
2022/04/29 06:48:58;;;;;;;11.95;7.82;;;;;;;;;;5042364;28;20057;-66
2022/04/29 06:51:25;;;;;;;12.25;7.78;;;;;;;;;;5022851;28;20048;-66
2022/04/29 06:53:51;;;;;;;14.15;8.68;;;;;;;;;;5020979;28;20048;-66
2022/04/29 06:56:17;;;;;;;12.52;8.45;;;;;;;;;;5027653;28;20041;-66
2022/04/29 06:58:43;;;;;;;15.90;8.63;;;;;;;;;;5022102;28;20037;-66
2022/04/29 07:01:09;;;;;;;10.88;7.93;;;;;;;;;;4998945;28;20631;-66
2022/04/29 07:03:38;;;;;;;14.82;9.30;;;;;;;;;;5017677;28;20033;-66
2022/04/29 07:06:05;;;;;;;14.27;8.43;;;;;;;;;;5032230;28;20045;-66
2022/04/29 07:08:31;;;;;;;15.52;8.95;;;;;;;;;;5014938;28;20045;-66
2022/04/29 07:10:57;;;;;;;16.02;8.75;;;;;;;;;;5014658;28;20049;-66
2022/04/29 07:13:24;;;;;;;14.27;8.73;;;;;;;;;;5020665;28;20479;-66
2022/04/29 07:15:50;;;;;;;14.35;8.60;;;;;;;;;;5019370;28;20079;-66
2022/04/29 07:18:17;;;;;;;16.17;8.15;;;;;;;;;;5026008;28;20057;-66
2022/04/29 07:20:43;;;;;;;13.70;7.20;;;;;;;;;;5022743;28;20037;-66
2022/04/29 07:23:09;;;;;;;10.50;7.57;;;;;;;;;;5019689;28;20149;-66
2022/04/29 07:25:36;;;;;;;14.25;7.45;;;;;;;;;;5022499;28;20409;-66
2022/04/29 07:28:03;;;;;;;17.23;6.97;;;;;;;;;;5002024;28;20144;-66
2022/04/29 07:30:29;;;;;;;11.35;6.38;;;;;;;;;;5008618;28;20059;-66
2022/04/29 07:32:55;;;;;;;12.55;6.13;;;;;;;;;;5025473;28;20041;-66
2022/04/29 07:43:37;;;;;;;11.10;5.65;;;;;;;;;;5013729;28;20052;-66
2022/04/29 07:46:06;;;;;;;8.38;4.55;;;;;;;;;;5018411;28;20045;-66
2022/04/29 07:48:33;;;;;;;7.43;5.00;;;;;;;;;;5021120;28;20072;-66
2022/04/29 07:50:59;;;;;;;9.65;4.80;;;;;;;;;;5021020;28;20068;-66
2022/04/29 07:53:25;;;;;;;8.73;4.28;;;;;;;;;;5024883;28;20048;-66
2022/04/29 07:55:52;;;;;;;8.40;4.18;;;;;;;;;;5026178;28;20041;-66
2022/04/29 07:58:18;;;;;;;9.40;4.40;;;;;;;;;;5029237;28;20053;-66
2022/04/29 08:00:44;;;;;;;9.70;4.68;;;;;;;;;;5020286;28;20507;-66
2022/04/29 08:03:10;;;;;;;10.82;4.00;;;;;;;;;;5026646;28;20040;-66
2022/04/29 08:05:36;;;;;;;10.18;4.10;;;;;;;;;;5028682;28;20121;-66
2022/04/29 08:08:02;;;;;;;6.97;4.03;;;;;;;;;;5008404;28;20544;-66
2022/04/29 08:10:32;;;;;;;7.05;3.47;;;;;;;;;;5026510;28;20045;-66
2022/04/29 08:12:59;;;;;;;8.75;4.10;;;;;;;;;;5025367;28;20064;-66
2022/04/29 08:15:26;;;;;;;5.43;3.28;;;;;;;;;;5008035;28;20157;-66
2022/04/29 08:17:52;;;;;;;10.73;3.22;;;;;;;;;;5028868;28;20045;-66
2022/04/29 08:20:18;;;;;;;4.93;3.05;;;;;;;;;;5023564;28;20041;-66
2022/04/29 08:22:44;;;;;;;7.30;3.67;;;;;;;;;;5023548;28;20068;-66
2022/04/29 08:25:10;;;;;;;8.38;3.47;;;;;;;;;;5026835;28;20056;-66
2022/04/29 08:27:36;;;;;;;5.60;3.53;;;;;;;;;;5017805;28;20046;-66
2022/04/29 08:30:05;;;;;;;7.35;3.75;;;;;;;;;;5021771;28;20041;-66
2022/04/29 08:32:39;;;;;;;5.30;3.53;;;;;;;;;;5018552;28;20064;-67
2022/04/29 08:35:05;;;;;;;8.40;4.10;;;;;;;;;;5030304;28;20749;-66
2022/04/29 08:37:31;;;;;;;8.07;4.22;;;;;;;;;;5025865;28;20099;-67
2022/04/29 08:39:57;;;;;;;7.88;4.40;;;;;;;;;;5030683;28;20041;-67
2022/04/29 08:42:25;;;;;;;6.00;3.70;;;;;;;;;;5022123;28;20041;-67
2022/04/29 08:44:52;;;;;;;6.05;3.40;;;;;;;;;;5018209;28;20041;-67
2022/04/29 08:47:18;;;;;;;9.98;3.80;;;;;;;;;;5026986;28;20389;-67
2022/04/29 08:49:46;;;;;;;5.53;3.55;;;;;;;;;;5027769;28;20049;-67
2022/04/29 08:52:14;;;;;;;8.52;3.38;;;;;;;;;;5021409;28;20048;-67
2022/04/29 09:00:13;;;;;;;7.03;3.72;;;;;;;;;;5039310;28;20099;-67
2022/04/29 09:02:40;;;;;;;5.80;3.47;;;;;;;;;;5039103;28;20041;-67
2022/04/29 09:05:08;;;;;;;6.75;3.50;;;;;;;;;;5010923;28;20465;-67
2022/04/29 09:07:53;;;;;;;6.28;3.45;;;;;;;;;;5032027;28;20533;-67
2022/04/29 09:10:19;;;;;;;6.95;3.65;;;;;;;;;;5028336;28;20052;-67
2022/04/29 09:12:45;;;;;;;6.45;3.30;;;;;;;;;;5028639;28;20124;-67
2022/04/29 09:15:12;;;;;;;5.97;3.33;;;;;;;;;;5023748;28;20057;-67
2022/04/29 09:17:39;;;;;;;7.20;3.45;;;;;;;;;;5021134;28;20437;-67
2022/04/29 09:20:13;;;;;;;7.88;3.63;;;;;;;;;;5044405;28;20041;-67
2022/04/29 09:22:40;;;;;;;11.10;3.38;;;;;;;;;;5026809;28;20064;-67
2022/04/29 09:25:07;;;;;;;7.57;3.30;;;;;;;;;;5017055;28;20052;-67
2022/04/29 09:27:53;;;;;;;7.82;3.63;;;;;;;;;;5025644;28;20037;-67
2022/04/29 09:30:32;;;;;;;5.32;3.47;;;;;;;;;;5026985;28;20054;-66
2022/04/29 09:32:58;;;;;;;8.93;3.28;;;;;;;;;;5011701;28;20048;-68
2022/04/29 09:35:37;;;;;;;7.95;3.05;;;;;;;;;;5023875;28;20041;-68
2022/04/29 09:40:49;;;;;;;4.40;2.67;;;;;;;;;;5021936;28;20083;-68
2022/04/29 09:43:15;;;;;;;10.63;3.10;;;;;;;;;;5020518;28;20037;-68
2022/04/29 09:45:41;;;;;;;7.07;3.28;;;;;;;;;;5017768;28;20037;-67
2022/04/29 09:48:09;;;;;;;8.38;3.45;;;;;;;;;;5021925;28;20120;-68
2022/04/29 09:50:52;;;;;;;5.53;2.90;;;;;;;;;;5026405;28;20423;-67
2022/04/29 09:53:23;;;;;;;9.25;3.88;;;;;;;;;;5023237;28;20037;-68
2022/04/29 09:56:10;;;;;;;6.93;3.35;;;;;;;;;;5045332;28;20389;-68
2022/04/29 09:58:36;;;;;;;10.77;3.60;;;;;;;;;;5029598;28;20103;-68
2022/04/29 10:01:04;;;;;;;6.28;3.13;;;;;;;;;;5038058;28;20505;-68
2022/04/29 10:03:30;;;;;;;9.15;4.15;;;;;;;;;;5016023;28;20108;-67
2022/04/29 10:05:58;;;;;;;7.30;3.40;;;;;;;;;;5024116;28;20041;-68
2022/04/29 10:08:26;;;;;;;6.55;3.47;;;;;;;;;;5016519;28;20037;-68
2022/04/29 10:10:54;;;;;;;8.90;4.20;;;;;;;;;;5027264;28;20037;-68
2022/04/29 10:13:23;;;;;;;8.80;3.85;;;;;;;;;;5017280;28;20120;-68
2022/04/29 10:15:51;;;;;;;4.65;3.28;;;;;;;;;;5001079;28;20759;-68
2022/04/29 10:21:15;;;;;;;9.25;4.05;;;;;;;;;;5017791;28;20576;-67
2022/04/29 10:23:42;;;;;;;6.22;3.97;;;;;;;;;;5017543;28;20045;-67
2022/04/29 10:26:09;;;;;;;5.43;3.38;;;;;;;;;;5025056;28;20040;-67
2022/04/29 10:28:35;;;;;;;5.40;3.53;;;;;;;;;;5019429;28;20041;-67
2022/04/29 10:31:09;;;;;;;8.48;3.47;;;;;;;;;;5022849;28;20076;-67
2022/04/29 10:33:36;;;;;;;7.43;3.47;;;;;;;;;;5022780;28;20554;-67
2022/04/29 10:36:09;;;;;;;5.63;3.88;;;;;;;;;;5023160;28;20091;-68
2022/04/29 10:38:39;;;;;;;5.90;3.58;;;;;;;;;;5019196;28;20080;-68
2022/04/29 10:41:16;;;;;;;7.80;3.70;;;;;;;;;;5023252;28;20069;-67
2022/04/29 10:43:51;;;;;;;7.03;3.45;;;;;;;;;;5035101;28;20432;-68
2022/04/29 10:46:37;;;;;;;6.75;3.47;;;;;;;;;;5017746;28;20044;-67
2022/04/29 10:49:21;;;;;;;7.82;3.45;;;;;;;;;;5030197;28;20041;-68
2022/04/29 10:51:51;;;;;;;11.07;3.00;;;;;;;;;;5015721;28;20087;-67
2022/04/29 10:54:41;;;;;;;5.38;3.08;;;;;;;;;;5018235;28;20089;-67
2022/04/29 10:57:08;;;;;;;6.95;3.20;;;;;;;;;;5005495;28;20061;-68
2022/04/29 10:59:53;;;;;;;3.97;2.70;;;;;;;;;;5019415;28;20049;-68
2022/04/29 11:02:29;;;;;;;7.55;3.20;;;;;;;;;;5022626;28;20361;-68
2022/04/29 11:04:55;;;;;;;7.18;3.05;;;;;;;;;;5005663;28;20037;-68
2022/04/29 11:07:48;;;;;;;4.68;2.72;;;;;;;;;;5016027;28;20083;-68
2022/04/29 11:10:19;;;;;;;5.47;2.70;;;;;;;;;;5016812;28;20057;-75
2022/04/29 11:12:58;;;;;;;7.30;3.13;;;;;;;;;;5020665;28;20092;-75
2022/04/29 11:15:26;;;;;;;6.78;2.88;;;;;;;;;;5019496;28;20051;-75
2022/04/29 11:17:53;;;;;;;6.18;3.20;;;;;;;;;;5021119;28;21002;-76
2022/04/29 11:20:25;;;;;;;7.03;2.63;;;;;;;;;;5022463;28;20041;-76
2022/04/29 11:25:48;;;;;;;6.68;2.70;;;;;;;;;;5021156;28;20543;-76
2022/04/29 11:28:15;;;;;;;7.82;2.92;;;;;;;;;;5027230;28;20067;-75
2022/04/29 11:30:41;;;;;;;5.65;2.80;;;;;;;;;;5026312;28;20440;-76
2022/04/29 11:33:07;;;;;;;4.05;3.00;;;;;;;;;;5024072;28;20393;-75
2022/04/29 11:35:33;;;;;;;4.03;2.60;;;;;;;;;;5021729;28;20043;-76
2022/04/29 11:37:59;;;;;;;7.00;2.55;;;;;;;;;;5008658;28;20053;-76
2022/04/29 11:40:27;;;;;;;4.55;2.40;;;;;;;;;;5015831;28;20435;-76
2022/04/29 11:42:53;;;;;;;9.88;2.88;;;;;;;;;;5019713;28;20037;-75
2022/04/29 11:45:23;;;;;;;6.68;2.40;;;;;;;;;;5019755;28;20120;-76
2022/04/29 11:47:49;;;;;;;5.50;2.85;;;;;;;;;;5017413;28;20060;-76
2022/04/29 11:50:15;;;;;;;7.68;2.53;;;;;;;;;;5015068;28;20075;-75
2022/04/29 11:52:41;;;;;;;6.70;2.58;;;;;;;;;;5016069;28;20075;-75
2022/04/29 11:55:15;;;;;;;10.02;2.50;;;;;;;;;;5011736;28;20432;-74
2022/04/29 11:57:44;;;;;;;8.30;2.58;;;;;;;;;;5011510;28;20111;-73
2022/04/29 12:00:21;;;;;;;7.82;2.70;;;;;;;;;;5011095;28;20038;-76
2022/04/29 12:02:47;;;;;;;5.10;2.75;;;;;;;;;;5011228;28;20042;-75
2022/04/29 12:05:13;;;;;;;7.32;2.85;;;;;;;;;;5012870;28;20164;-75
2022/04/29 12:07:40;;;;;;;4.57;2.75;;;;;;;;;;5011221;28;20138;-75
2022/04/29 12:10:23;;;;;;;10.07;2.97;;;;;;;;;;5013176;28;20045;-75
2022/04/29 12:12:51;;;;;;;7.47;3.25;;;;;;;;;;5012368;28;20064;-75
2022/04/29 12:15:21;;;;;;;9.02;3.40;;;;;;;;;;5011806;28;20049;-75
2022/04/29 12:17:48;;;;;;;9.45;2.92;;;;;;;;;;5011244;28;20136;-75
2022/04/29 12:20:18;;;;;;;7.05;2.80;;;;;;;;;;5011394;28;20045;-75
2022/04/29 12:22:44;;;;;;;8.73;3.30;;;;;;;;;;5030367;28;20085;-75
2022/04/29 12:25:31;;;;;;;6.55;3.22;;;;;;;;;;5014100;28;20377;-75
2022/04/29 12:28:06;;;;;;;4.82;3.15;;;;;;;;;;5012427;28;20077;-75
2022/04/29 12:36:09;;;;;;;6.70;3.47;;;;;;;;;;5012821;28;20088;-75
2022/04/29 12:38:35;;;;;;;9.02;3.88;;;;;;;;;;5014202;28;20476;-74
2022/04/29 12:41:15;;;;;;;8.93;3.28;;;;;;;;;;5015240;28;20037;-75
2022/04/29 12:43:44;;;;;;;5.20;3.20;;;;;;;;;;5016315;28;20047;-75
2022/04/29 12:46:14;;;;;;;7.25;3.10;;;;;;;;;;5016325;28;20480;-75
2022/04/29 12:48:47;;;;;;;4.32;3.10;;;;;;;;;;5015497;28;20076;-75
2022/04/29 12:51:31;;;;;;;7.90;3.50;;;;;;;;;;5015508;28;20039;-75
2022/04/29 12:53:57;;;;;;;5.75;3.83;;;;;;;;;;5016027;28;20115;-74
2022/04/29 12:56:27;;;;;;;8.57;3.95;;;;;;;;;;5015243;28;20045;-75
2022/04/29 12:58:54;;;;;;;9.20;3.75;;;;;;;;;;5014581;28;20576;-75
2022/04/29 13:01:20;;;;;;;6.95;4.30;;;;;;;;;;5013150;28;20124;-74
2022/04/29 13:03:50;;;;;;;6.40;3.83;;;;;;;;;;5014968;28;20075;-75
2022/04/29 13:06:17;;;;;;;9.23;3.92;;;;;;;;;;5015288;28;20497;-75
2022/04/29 13:08:45;;;;;;;6.40;3.55;;;;;;;;;;5015317;28;20433;-75
2022/04/29 13:11:17;;;;;;;7.25;3.90;;;;;;;;;;5017516;28;20080;-75
2022/04/29 13:13:43;;;;;;;9.57;4.10;;;;;;;;;;5015598;28;20481;-75
2022/04/29 13:16:09;;;;;;;9.73;4.30;;;;;;;;;;5014633;28;20076;-75
2022/04/29 13:18:35;;;;;;;9.57;4.63;;;;;;;;;;5016094;28;20061;-74
2022/04/29 13:21:06;;;;;;;5.57;4.25;;;;;;;;;;5015634;28;20503;-75
2022/04/29 13:23:34;;;;;;;7.38;4.05;;;;;;;;;;5015740;28;20079;-74
2022/04/29 13:26:00;;;;;;;5.78;4.03;;;;;;;;;;5014230;28;20201;-74
2022/04/29 13:28:26;;;;;;;8.48;4.13;;;;;;;;;;5014783;28;20056;-74
2022/04/29 13:30:52;;;;;;;6.60;4.05;;;;;;;;;;5015100;28;20111;-74
2022/04/29 13:33:18;;;;;;;7.20;4.38;;;;;;;;;;5016695;28;20038;-74
2022/04/29 13:35:45;;;;;;;8.32;4.38;;;;;;;;;;5013616;28;20140;-75
2022/04/29 13:38:11;;;;;;;5.28;4.07;;;;;;;;;;5015056;28;20033;-74
2022/04/29 13:40:37;;;;;;;6.05;4.78;;;;;;;;;;5015447;28;20049;-75
2022/04/29 13:43:06;;;;;;;6.40;4.57;;;;;;;;;;5013837;28;20041;-74
2022/04/29 13:45:32;;;;;;;8.38;4.72;;;;;;;;;;5013874;28;20777;-75
2022/04/29 13:47:59;;;;;;;6.35;4.80;;;;;;;;;;5015298;28;20033;-74
2022/04/29 13:50:25;;;;;;;6.43;4.80;;;;;;;;;;5014072;28;20041;-74
2022/04/29 13:53:09;;;;;;;5.25;4.40;;;;;;;;;;5012595;28;20052;-74
2022/04/29 13:55:56;;;;;;;7.43;5.03;;;;;;;;;;5013927;28;20128;-75
2022/04/29 13:58:23;;;;;;;8.23;4.63;;;;;;;;;;5013806;28;20174;-75
2022/04/29 14:00:50;;;;;;;8.05;4.63;;;;;;;;;;4994421;28;20447;-74
2022/04/29 14:03:20;;;;;;;5.68;4.57;;;;;;;;;;5012319;28;20042;-75
2022/04/29 14:05:47;;;;;;;6.30;4.65;;;;;;;;;;5013984;28;20051;-75
2022/04/29 14:08:13;;;;;;;5.80;3.90;;;;;;;;;;4996529;28;20041;-74
2022/04/29 14:10:39;;;;;;;8.95;4.20;;;;;;;;;;5014793;28;20041;-74
2022/04/29 14:13:10;;;;;;;5.82;3.60;;;;;;;;;;4995832;28;20042;-68
2022/04/29 14:15:36;;;;;;;7.32;4.15;;;;;;;;;;5014099;28;20068;-68
2022/04/29 14:18:02;;;;;;;7.38;3.60;;;;;;;;;;5012771;28;20508;-68
2022/04/29 14:20:29;;;;;;;8.63;4.50;;;;;;;;;;5012837;28;20099;-68
2022/04/29 14:22:55;;;;;;;5.35;3.53;;;;;;;;;;5013813;28;20049;-68
2022/04/29 14:25:21;;;;;;;5.70;3.60;;;;;;;;;;5012741;28;20057;-68
2022/04/29 14:27:48;;;;;;;5.63;2.83;;;;;;;;;;5013691;28;20457;-68
2022/04/29 14:30:15;;;;;;;4.20;3.10;;;;;;;;;;5015304;28;20768;-68
2022/04/29 14:32:41;;;;;;;8.27;3.60;;;;;;;;;;5011499;28;20139;-68
2022/04/29 14:35:08;;;;;;;6.45;3.05;;;;;;;;;;4996167;28;20050;-68
2022/04/29 14:37:35;;;;;;;7.95;3.60;;;;;;;;;;5012885;28;20520;-68
2022/04/29 14:40:02;;;;;;;5.55;3.70;;;;;;;;;;5012858;28;20045;-68
2022/04/29 14:42:29;;;;;;;9.02;4.00;;;;;;;;;;5026977;28;20116;-67
2022/04/29 14:44:55;;;;;;;6.65;3.97;;;;;;;;;;5012758;28;20045;-67
2022/04/29 14:47:21;;;;;;;6.30;4.00;;;;;;;;;;5011455;28;20037;-66
2022/04/29 14:49:48;;;;;;;5.65;3.58;;;;;;;;;;5013753;28;20084;-66
2022/04/29 14:52:14;;;;;;;8.10;3.63;;;;;;;;;;5012677;28;20095;-67
2022/04/29 14:54:41;;;;;;;4.43;3.13;;;;;;;;;;5012762;28;20063;-66
2022/04/29 14:57:08;;;;;;;6.60;3.15;;;;;;;;;;5014500;28;20408;-66
2022/04/29 14:59:34;;;;;;;4.43;3.25;;;;;;;;;;5012413;28;20076;-66
2022/04/29 15:02:01;;;;;;;6.57;3.30;;;;;;;;;;5011662;28;20167;-66
2022/04/29 15:04:27;;;;;;;6.88;3.10;;;;;;;;;;5012895;28;20057;-67
2022/04/29 15:06:54;;;;;;;4.95;2.90;;;;;;;;;;5013087;28;20069;-66
2022/04/29 15:17:36;;;;;;;6.45;3.78;;;;;;;;;;5009424;28;20491;-66